< < Back
Terminal Aerodrome Forecast


Current Version              Previous Versions:   1  2  3  4  5  6  7  8  9  

Terminal Aerodrome Forecast

757
FTUS44 KMRX 211744
TAFTYS
TAF
KTYS 211744Z 2118/2218 29009KT P6SM SCT050
     FM220000 35005KT P6SM SCT040
     FM221400 02007KT P6SM SCT070=

Latest METAR

708
SAUS80 KWBC 220400
MTRTYS
METAR KTYS 220353Z 36004KT 10SM FEW060 09/04 A3010 RMK AO2 SLP188
T00940044


USA.gov is the U.S. government's official web portal to all federal, state and local government web resources and services.